createdAt,value
2018-01-25T00:01:28.015Z,8.20
2018-01-25T00:03:56.355Z,7.80
2018-01-25T00:06:24.664Z,6.40
2018-01-25T00:08:53.612Z,6.23
2018-01-25T00:11:22.064Z,8.47
2018-01-25T00:13:50.363Z,10.50
2018-01-25T00:16:19.424Z,9.73
2018-01-25T00:18:48.351Z,6.87
2018-01-25T00:21:16.660Z,4.07
2018-01-25T00:23:44.956Z,6.07
2018-01-25T00:26:13.555Z,4.47
2018-01-25T00:28:41.969Z,7.40
2018-01-25T00:31:10.571Z,10.70
2018-01-25T00:33:39.562Z,6.20
2018-01-25T00:36:07.854Z,7.70
2018-01-25T00:38:36.300Z,5.60
2018-01-25T00:41:04.651Z,8.10
2018-01-25T00:43:33.540Z,8.97
2018-01-25T00:46:01.843Z,7.23
2018-01-25T00:48:30.468Z,7.70
2018-01-25T00:50:58.772Z,7.00
2018-01-25T00:53:27.082Z,5.87
2018-01-25T00:55:56.195Z,7.90
2018-01-25T00:58:24.508Z,7.90
2018-01-25T01:00:54.748Z,8.73
2018-01-25T01:03:23.752Z,8.30
2018-01-25T01:05:52.053Z,6.60
2018-01-25T01:08:20.351Z,8.97
2018-01-25T01:10:48.703Z,6.47
2018-01-25T01:13:17.084Z,7.73
2018-01-25T01:15:45.956Z,5.77
2018-01-25T01:18:14.316Z,5.93
2018-01-25T01:20:42.630Z,7.87
2018-01-25T01:23:10.939Z,6.17
2018-01-25T01:25:39.319Z,6.70
2018-01-25T01:28:08.151Z,7.73
2018-01-25T01:30:36.663Z,7.13
2018-01-25T01:33:05.267Z,4.93
2018-01-25T01:35:34.327Z,4.50
2018-01-25T01:38:02.706Z,6.77
2018-01-25T01:40:31.228Z,7.10
2018-01-25T01:42:59.532Z,10.13
2018-01-25T01:45:27.609Z,9.17
2018-01-25T01:47:55.975Z,13.93
2018-01-25T01:50:24.276Z,8.67
2018-01-25T01:52:52.646Z,9.77
2018-01-25T01:55:20.967Z,8.70
2018-01-25T01:57:50.037Z,12.47
2018-01-25T02:00:18.376Z,9.70
2018-01-25T02:02:46.679Z,12.17
2018-01-25T02:05:14.975Z,7.70
2018-01-25T02:07:43.302Z,13.50
2018-01-25T02:10:11.599Z,7.00
2018-01-25T02:12:39.961Z,5.27
2018-01-25T02:15:08.304Z,8.00
2018-01-25T02:17:36.625Z,8.67
2018-01-25T02:20:05.909Z,7.60
2018-01-25T02:22:34.211Z,9.03
2018-01-25T02:25:02.512Z,5.30
2018-01-25T02:27:30.852Z,7.50
2018-01-25T02:29:59.268Z,11.53
2018-01-25T02:32:28.013Z,11.00
2018-01-25T02:34:56.511Z,7.70
2018-01-25T02:37:25.074Z,9.33
2018-01-25T02:39:53.375Z,6.00
2018-01-25T02:42:21.716Z,11.70
2018-01-25T02:44:50.556Z,6.80
2018-01-25T02:47:18.867Z,8.83
2018-01-25T02:49:47.224Z,10.83
2018-01-25T02:52:15.524Z,8.17
2018-01-25T02:54:43.826Z,5.23
2018-01-25T02:57:12.156Z,10.97
2018-01-25T02:59:40.459Z,6.73
2018-01-25T03:02:09.052Z,7.93
2018-01-25T03:04:37.350Z,8.03
2018-01-25T03:07:05.652Z,6.23
2018-01-25T03:09:34.146Z,8.23
2018-01-25T03:12:02.439Z,7.30
2018-01-25T03:14:30.750Z,7.97
2018-01-25T03:17:01.944Z,8.40
2018-01-25T03:19:30.251Z,6.27
2018-01-25T03:21:58.695Z,8.13
2018-01-25T03:24:27.019Z,9.37
2018-01-25T03:26:55.319Z,9.00
2018-01-25T03:29:23.703Z,8.07
2018-01-25T03:31:52.447Z,9.50
2018-01-25T03:34:21.587Z,8.63
2018-01-25T03:36:49.919Z,7.23
2018-01-25T03:39:18.983Z,8.00
2018-01-25T03:41:48.196Z,8.70
2018-01-25T03:57:05.223Z,7.50
2018-01-25T03:59:34.275Z,7.93
2018-01-25T04:02:03.379Z,9.80
2018-01-25T04:04:31.715Z,8.90
2018-01-25T04:07:00.012Z,9.10
2018-01-25T04:09:28.911Z,4.23
2018-01-25T04:11:57.496Z,4.73
2018-01-25T04:14:25.797Z,6.90
2018-01-25T04:16:54.092Z,6.90
2018-01-25T04:19:23.208Z,9.63
2018-01-25T04:21:51.508Z,8.10
2018-01-25T04:24:20.160Z,10.47
2018-01-25T04:26:48.503Z,10.50
2018-01-25T04:29:17.003Z,6.07
2018-01-25T04:31:45.368Z,5.03
2018-01-25T04:34:14.105Z,6.00
2018-01-25T04:36:42.424Z,7.83
2018-01-25T04:39:11.416Z,8.23
2018-01-25T04:41:39.787Z,5.67
2018-01-25T04:44:08.091Z,7.40
2018-01-25T04:46:36.391Z,6.27
2018-01-25T04:49:05.304Z,8.00
2018-01-25T04:51:33.611Z,12.30
2018-01-25T04:54:01.908Z,9.63
2018-01-25T04:56:30.371Z,6.17
2018-01-25T04:58:59.259Z,9.63
2018-01-25T05:01:27.660Z,7.90
2018-01-25T05:03:56.023Z,6.47
2018-01-25T05:06:24.532Z,7.43
2018-01-25T05:08:52.832Z,9.10
2018-01-25T05:11:21.167Z,6.70
2018-01-25T05:13:49.872Z,6.70
2018-01-25T05:16:18.173Z,6.17
2018-01-25T05:18:47.011Z,9.37
2018-01-25T05:21:15.880Z,9.07
2018-01-25T05:23:44.195Z,7.57
2018-01-25T05:26:12.853Z,8.30
2018-01-25T05:28:41.175Z,11.20
2018-01-25T05:31:09.476Z,6.27
2018-01-25T05:33:37.844Z,9.67
2018-01-25T05:36:06.144Z,7.00
2018-01-25T05:38:35.219Z,4.53
2018-01-25T05:41:04.774Z,9.57
2018-01-25T05:43:33.081Z,6.03
2018-01-25T05:46:01.391Z,4.80
2018-01-25T05:48:29.728Z,6.20
2018-01-25T05:50:58.027Z,7.63
2018-01-25T05:53:26.327Z,5.53
2018-01-25T05:55:55.056Z,5.80
2018-01-25T05:58:24.251Z,10.30
2018-01-25T06:00:52.553Z,13.30
2018-01-25T06:03:21.621Z,5.53
2018-01-25T06:05:49.931Z,5.10
2018-01-25T06:08:19.331Z,7.33
2018-01-25T06:10:48.358Z,6.07
2018-01-25T06:13:16.677Z,7.20
2018-01-25T06:15:44.979Z,10.60
2018-01-25T06:18:13.701Z,7.07
2018-01-25T06:20:42.665Z,10.00
2018-01-25T06:23:11.056Z,11.13
2018-01-25T06:25:39.371Z,10.10
2018-01-25T06:28:07.831Z,10.20
2018-01-25T06:30:36.173Z,12.70
2018-01-25T06:33:05.240Z,11.00
2018-01-25T06:35:33.596Z,11.80
2018-01-25T06:38:03.390Z,8.90
2018-01-25T06:40:31.697Z,15.00
2018-01-25T06:43:00.715Z,8.93
2018-01-25T06:45:29.020Z,12.27
2018-01-25T06:47:57.776Z,8.57
2018-01-25T06:50:26.152Z,12.07
2018-01-25T06:52:54.446Z,9.10
2018-01-25T06:55:23.195Z,9.80
2018-01-25T06:57:52.736Z,7.43
2018-01-25T07:00:21.800Z,7.93
2018-01-25T07:02:50.200Z,6.63
2018-01-25T07:05:18.500Z,6.70
2018-01-25T07:07:46.836Z,8.43
2018-01-25T07:10:15.842Z,8.53
2018-01-25T07:12:44.138Z,10.10
2018-01-25T07:15:12.439Z,4.27
2018-01-25T07:17:40.786Z,7.93
2018-01-25T07:20:12.552Z,9.70
2018-01-25T07:22:42.146Z,7.37
2018-01-25T07:25:10.338Z,7.87
2018-01-25T07:27:39.640Z,7.43
2018-01-25T07:30:08.700Z,6.30
2018-01-25T07:32:37.043Z,6.00
2018-01-25T07:35:05.388Z,7.87
2018-01-25T07:37:33.651Z,6.80
2018-01-25T07:40:04.328Z,11.23
2018-01-25T07:42:32.639Z,10.30
2018-01-25T07:45:00.942Z,7.63
2018-01-25T07:47:29.283Z,12.40
2018-01-25T07:49:57.604Z,13.40
2018-01-25T07:52:26.676Z,9.80
2018-01-25T07:54:55.395Z,8.57
2018-01-25T08:00:27.751Z,7.73
2018-01-25T08:02:56.443Z,6.80
2018-01-25T08:05:24.740Z,7.80
2018-01-25T08:07:53.184Z,14.33
2018-01-25T08:10:21.899Z,12.63
2018-01-25T08:12:50.703Z,12.90
2018-01-25T08:15:19.391Z,13.40
2018-01-25T08:17:47.879Z,16.43
2018-01-25T08:20:16.752Z,9.00
2018-01-25T08:22:45.279Z,6.20
2018-01-25T08:25:14.236Z,4.97
2018-01-25T08:27:43.303Z,10.40
2018-01-25T08:30:11.871Z,6.40
2018-01-25T08:32:40.176Z,8.80
2018-01-25T08:35:08.484Z,12.07
2018-01-25T08:37:36.856Z,7.37
2018-01-25T08:40:05.798Z,8.83
2018-01-25T08:42:34.098Z,6.50
2018-01-25T08:45:02.404Z,8.90
2018-01-25T08:47:31.352Z,7.83
2018-01-25T08:49:59.647Z,6.83
2018-01-25T08:52:27.965Z,6.50
2018-01-25T08:54:56.319Z,8.57
2018-01-25T08:57:24.627Z,8.63
2018-01-25T08:59:52.948Z,19.23
2018-01-25T09:02:22.095Z,15.40
2018-01-25T09:04:50.407Z,11.80
2018-01-25T09:07:18.735Z,12.43
2018-01-25T09:09:47.388Z,13.20
2018-01-25T09:12:15.687Z,9.73
2018-01-25T09:14:44.100Z,17.27
2018-01-25T09:17:12.512Z,11.60
2018-01-25T09:19:41.035Z,18.43
2018-01-25T09:22:09.347Z,13.80
2018-01-25T09:24:38.107Z,9.77
2018-01-25T09:27:06.463Z,8.27
2018-01-25T09:29:36.555Z,9.07
2018-01-25T09:32:04.863Z,9.07
2018-01-25T09:34:33.316Z,16.70
2018-01-25T09:37:01.916Z,12.70
2018-01-25T09:39:30.223Z,9.10
2018-01-25T09:41:58.547Z,10.17
2018-01-25T09:44:26.987Z,9.87
2018-01-25T09:46:55.287Z,9.80
2018-01-25T09:49:23.604Z,18.30
2018-01-25T09:51:52.210Z,12.50
2018-01-25T09:54:20.558Z,14.50
2018-01-25T09:56:48.865Z,13.30
2018-01-25T09:59:20.171Z,11.30
2018-01-25T10:01:49.383Z,14.97
2018-01-25T10:04:17.688Z,9.10
2018-01-25T10:06:46.752Z,10.13
2018-01-25T10:09:15.079Z,11.33
2018-01-25T10:11:44.059Z,12.10
2018-01-25T10:14:13.272Z,20.13
2018-01-25T10:16:41.736Z,15.90
2018-01-25T10:19:10.040Z,17.47
2018-01-25T10:21:38.876Z,19.70
2018-01-25T10:24:07.196Z,28.73
2018-01-25T10:26:36.547Z,19.30
2018-01-25T10:29:05.344Z,15.03
2018-01-25T10:31:33.844Z,16.53
2018-01-25T10:34:02.152Z,14.80
2018-01-25T10:36:30.742Z,10.90
2018-01-25T10:38:59.055Z,15.03
2018-01-25T10:41:28.269Z,12.07
2018-01-25T10:43:56.567Z,8.90
2018-01-25T10:46:25.064Z,9.90
2018-01-25T10:48:53.862Z,9.53
2018-01-25T10:51:22.295Z,9.30
2018-01-25T10:53:50.607Z,9.60
2018-01-25T10:56:18.948Z,7.73
2018-01-25T10:58:48.856Z,11.33
2018-01-25T11:01:23.008Z,16.93
2018-01-25T11:03:51.567Z,26.23
2018-01-25T11:06:19.883Z,22.33
2018-01-25T11:08:48.190Z,27.17
2018-01-25T11:11:16.952Z,25.97
2018-01-25T11:13:45.567Z,21.57
2018-01-25T11:16:14.075Z,19.73
2018-01-25T11:18:43.155Z,19.43
2018-01-25T11:21:11.748Z,31.13
2018-01-25T11:23:43.023Z,11.83
2018-01-25T11:26:11.999Z,12.30
2018-01-25T11:28:40.312Z,13.93
2018-01-25T11:31:08.912Z,13.90
2018-01-25T11:33:37.226Z,10.43
2018-01-25T11:36:05.527Z,14.70
2018-01-25T11:38:35.031Z,14.73
2018-01-25T11:41:04.128Z,11.33
2018-01-25T11:43:33.039Z,15.97
2018-01-25T11:46:01.611Z,13.50
2018-01-25T11:48:30.951Z,19.67
2018-01-25T11:51:00.688Z,15.50
2018-01-25T11:53:29.727Z,17.33
2018-01-25T11:55:58.832Z,19.37
2018-01-25T11:58:27.912Z,12.20
2018-01-25T12:00:56.200Z,10.47
2018-01-25T12:03:25.260Z,10.73
2018-01-25T12:05:54.347Z,13.00
2018-01-25T12:08:22.656Z,25.27
2018-01-25T12:10:51.719Z,13.77
2018-01-25T12:13:20.028Z,13.80
2018-01-25T12:15:48.331Z,16.20
2018-01-25T12:18:16.751Z,9.30
2018-01-25T12:20:45.522Z,8.27
2018-01-25T12:23:14.144Z,10.17
2018-01-25T12:25:44.809Z,7.10
2018-01-25T12:28:13.151Z,8.77
2018-01-25T12:30:41.499Z,9.23
2018-01-25T12:33:10.305Z,7.63
2018-01-25T12:35:38.679Z,7.80
2018-01-25T12:38:07.667Z,5.97
2018-01-25T12:40:36.012Z,7.07
2018-01-25T12:43:04.311Z,8.20
2018-01-25T12:45:33.344Z,5.63
2018-01-25T12:48:01.642Z,8.20
2018-01-25T12:50:30.978Z,7.03
2018-01-25T12:53:00.359Z,7.10
2018-01-25T12:55:29.539Z,6.30
2018-01-25T12:57:57.844Z,5.90
2018-01-25T13:00:26.963Z,6.43
2018-01-25T13:02:55.260Z,9.30
2018-01-25T13:05:23.647Z,7.70
2018-01-25T13:07:52.000Z,6.43
2018-01-25T13:10:20.592Z,4.10
2018-01-25T13:12:49.991Z,9.63
2018-01-25T13:15:19.119Z,6.40
2018-01-25T13:17:47.819Z,7.13
2018-01-25T13:20:16.275Z,8.50
2018-01-25T13:22:45.492Z,5.60
2018-01-25T13:25:13.811Z,5.50
2018-01-25T13:27:43.443Z,7.50
2018-01-25T13:30:14.238Z,6.43
2018-01-25T13:32:43.508Z,9.70
2018-01-25T13:35:12.656Z,7.70
2018-01-25T13:37:41.052Z,7.47
2018-01-25T13:40:09.717Z,9.67
2018-01-25T13:42:38.299Z,10.03
2018-01-25T13:45:06.607Z,10.87
2018-01-25T13:47:34.955Z,7.97
2018-01-25T13:50:03.307Z,11.10
2018-01-25T13:52:37.320Z,10.03
2018-01-25T13:55:05.624Z,7.53
2018-01-25T13:57:33.934Z,8.87
2018-01-25T14:00:02.908Z,6.80
2018-01-25T14:02:31.212Z,6.03
2018-01-25T14:04:59.686Z,10.00
2018-01-25T14:07:28.149Z,8.50
2018-01-25T14:09:56.688Z,7.83
2018-01-25T14:12:24.987Z,8.63
2018-01-25T14:14:53.339Z,7.90
2018-01-25T14:17:21.691Z,6.77
2018-01-25T14:19:50.581Z,5.47
2018-01-25T14:22:18.931Z,6.00
2018-01-25T14:24:47.420Z,8.77
2018-01-25T14:27:16.184Z,7.70
2018-01-25T14:29:44.683Z,7.60
2018-01-25T14:32:13.440Z,7.23
2018-01-25T14:34:41.747Z,6.63
2018-01-25T14:37:10.202Z,7.53
2018-01-25T14:39:39.111Z,8.33
2018-01-25T14:42:07.952Z,7.70
2018-01-25T14:44:37.536Z,6.67
2018-01-25T14:47:06.131Z,12.20
2018-01-25T14:49:34.436Z,6.73
2018-01-25T14:52:03.223Z,11.80
2018-01-25T14:54:32.023Z,9.40
2018-01-25T14:57:00.644Z,6.77
2018-01-25T14:59:28.947Z,8.80
2018-01-25T15:01:58.016Z,9.63
2018-01-25T15:04:26.424Z,10.83
2018-01-25T15:06:54.655Z,8.63
2018-01-25T15:09:23.119Z,11.83
2018-01-25T15:11:51.420Z,5.50
2018-01-25T15:14:19.720Z,9.47
2018-01-25T15:16:50.191Z,8.20
2018-01-25T15:19:19.240Z,6.60
2018-01-25T15:21:48.303Z,11.30
2018-01-25T15:24:16.504Z,10.13
2018-01-25T15:26:51.118Z,10.90
2018-01-25T15:29:19.423Z,12.40
2018-01-25T15:31:48.497Z,8.53
2018-01-25T15:34:16.848Z,9.07
2018-01-25T15:36:47.711Z,6.30
2018-01-25T15:39:16.067Z,8.20
2018-01-25T15:41:44.375Z,7.33
2018-01-25T15:44:12.688Z,8.03
2018-01-25T15:46:41.045Z,11.50
2018-01-25T15:49:09.359Z,10.57
2018-01-25T15:51:37.680Z,10.33
2018-01-25T15:54:06.274Z,8.30
2018-01-25T15:56:35.944Z,17.90
2018-01-25T15:59:04.578Z,9.80
2018-01-25T16:01:32.925Z,9.20
2018-01-25T16:04:02.124Z,8.23
2018-01-25T16:06:30.681Z,11.97
2018-01-25T16:08:59.024Z,11.93
2018-01-25T16:11:27.451Z,13.57
2018-01-25T16:13:55.787Z,13.43
2018-01-25T16:16:24.100Z,10.30
2018-01-25T16:18:52.508Z,11.80
2018-01-25T16:21:21.108Z,11.27
2018-01-25T16:23:49.407Z,10.73
2018-01-25T16:26:17.771Z,18.57
2018-01-25T16:28:46.080Z,14.13
2018-01-25T16:31:15.635Z,15.17
2018-01-25T16:33:43.833Z,13.63
2018-01-25T16:36:12.148Z,13.17
2018-01-25T16:38:40.461Z,12.70
2018-01-25T16:41:09.397Z,13.00
2018-01-25T16:43:37.696Z,16.50
2018-01-25T16:46:06.008Z,12.73
2018-01-25T16:48:34.820Z,12.47
2018-01-25T16:51:03.139Z,15.60
2018-01-25T16:53:31.444Z,24.77
2018-01-25T16:56:00.924Z,21.63
2018-01-25T16:58:29.781Z,19.43
2018-01-25T17:00:58.888Z,20.07
2018-01-25T17:03:28.687Z,14.13
2018-01-25T17:05:57.215Z,19.97
2018-01-25T17:08:25.561Z,15.67
2018-01-25T17:10:53.907Z,20.20
2018-01-25T17:13:23.362Z,14.80
2018-01-25T17:15:51.879Z,14.80
2018-01-25T17:18:21.119Z,15.07
2018-01-25T17:20:50.412Z,15.87
2018-01-25T17:23:18.964Z,18.60
2018-01-25T17:25:47.419Z,11.97
2018-01-25T17:28:15.791Z,11.70
2018-01-25T17:30:44.145Z,16.33
2018-01-25T17:33:13.199Z,17.90
2018-01-25T17:35:41.555Z,16.60
2018-01-25T17:38:10.303Z,18.40
2018-01-25T17:40:38.891Z,13.83
2018-01-25T17:43:07.254Z,16.53
2018-01-25T17:45:35.555Z,12.20
2018-01-25T17:48:04.364Z,12.23
2018-01-25T17:50:32.681Z,13.53
2018-01-25T17:53:01.171Z,11.60
2018-01-25T17:55:30.316Z,14.03
2018-01-25T17:57:58.620Z,14.03
2018-01-25T18:00:27.282Z,11.13
2018-01-25T18:02:55.774Z,13.80
2018-01-25T18:05:24.879Z,11.87
2018-01-25T18:07:53.235Z,15.10
2018-01-25T18:10:21.593Z,35.67
2018-01-25T18:12:50.247Z,14.00
2018-01-25T18:15:18.987Z,20.63
2018-01-25T18:17:47.807Z,18.33
2018-01-25T18:20:16.750Z,20.10
2018-01-25T18:22:45.107Z,17.50
2018-01-25T18:25:14.414Z,18.67
2018-01-25T18:27:42.726Z,20.53
2018-01-25T18:30:11.040Z,13.23
2018-01-25T18:32:40.080Z,16.10
2018-01-25T18:35:08.687Z,17.10
2018-01-25T18:37:37.068Z,22.80
2018-01-25T18:40:05.418Z,16.00
2018-01-25T18:42:35.236Z,24.53
2018-01-25T18:45:04.116Z,20.00
2018-01-25T18:47:32.419Z,24.67
2018-01-25T18:50:01.103Z,26.70
2018-01-25T18:52:29.800Z,24.07
2018-01-25T18:54:58.146Z,19.40
2018-01-25T18:57:26.315Z,18.30
2018-01-25T18:59:54.683Z,16.40
2018-01-25T19:02:23.034Z,17.60
2018-01-25T19:04:51.968Z,20.30
2018-01-25T19:07:20.285Z,17.67
2018-01-25T19:09:48.643Z,16.63
2018-01-25T19:12:17.611Z,28.93
2018-01-25T19:14:47.471Z,18.77
2018-01-25T19:17:16.131Z,23.53
2018-01-25T19:19:44.907Z,21.40
2018-01-25T19:22:13.031Z,26.03
2018-01-25T19:24:41.396Z,22.90
2018-01-25T19:27:09.760Z,16.10
2018-01-25T19:29:38.347Z,19.70
2018-01-25T19:32:07.100Z,18.30
2018-01-25T19:34:35.784Z,24.43
2018-01-25T19:37:04.140Z,24.00
2018-01-25T19:39:33.203Z,30.57
2018-01-25T19:42:01.667Z,31.37
2018-01-25T19:44:30.765Z,22.93
2018-01-25T19:46:59.130Z,23.77
2018-01-25T19:49:27.951Z,23.07
2018-01-25T19:51:56.265Z,23.90
2018-01-25T19:54:24.618Z,23.30
2018-01-25T19:56:52.970Z,24.90
2018-01-25T19:59:22.239Z,32.07
2018-01-25T20:01:51.327Z,24.77
2018-01-25T20:04:19.687Z,23.10
2018-01-25T20:06:48.403Z,25.23
2018-01-25T20:09:17.191Z,29.13
2018-01-25T20:11:45.808Z,29.23
2018-01-25T20:14:14.128Z,32.90
2018-01-25T20:16:42.848Z,24.50
2018-01-25T20:19:11.740Z,24.10
2018-01-25T20:21:40.155Z,25.13
2018-01-25T20:24:09.102Z,18.67
2018-01-25T20:26:37.472Z,17.33
2018-01-25T20:29:05.850Z,18.47
2018-01-25T20:31:34.408Z,15.07
2018-01-25T20:34:03.547Z,17.83
2018-01-25T20:36:31.860Z,22.63
2018-01-25T20:39:00.250Z,18.87
2018-01-25T20:41:29.934Z,18.87
2018-01-25T20:43:58.991Z,21.53
2018-01-25T20:46:27.511Z,23.60
2018-01-25T20:48:56.384Z,21.93
2018-01-25T20:51:24.919Z,23.17
2018-01-25T20:53:53.243Z,22.53
2018-01-25T20:56:21.645Z,19.20
2018-01-25T20:58:50.299Z,20.87
2018-01-25T21:01:19.140Z,18.03
2018-01-25T21:03:47.506Z,27.73
2018-01-25T21:06:15.819Z,23.60
2018-01-25T21:08:45.301Z,19.90
2018-01-25T21:11:14.380Z,18.90
2018-01-25T21:13:42.713Z,22.80
2018-01-25T21:16:11.155Z,18.80
2018-01-25T21:18:40.304Z,21.23
2018-01-25T21:21:09.239Z,19.43
2018-01-25T21:23:37.699Z,20.07
2018-01-25T21:26:06.004Z,20.90
2018-01-25T21:28:34.623Z,22.57
2018-01-25T21:31:02.974Z,17.87
2018-01-25T21:33:31.299Z,19.50
2018-01-25T21:36:00.599Z,19.23
2018-01-25T21:38:28.912Z,21.67
2018-01-25T21:40:57.964Z,19.23
2018-01-25T21:43:26.375Z,22.43
2018-01-25T21:45:54.730Z,20.70
2018-01-25T21:48:23.086Z,18.47
2018-01-25T21:50:51.665Z,17.10
2018-01-25T21:53:20.054Z,21.50
2018-01-25T21:55:48.479Z,28.83
2018-01-25T21:58:17.074Z,19.40
2018-01-25T22:00:45.383Z,24.27
2018-01-25T22:03:13.715Z,40.40
2018-01-25T22:05:42.331Z,34.07
2018-01-25T22:08:10.736Z,27.53
2018-01-25T22:10:39.077Z,32.63
2018-01-25T22:13:07.887Z,48.03
2018-01-25T22:15:36.691Z,49.77
2018-01-25T22:18:05.389Z,26.80
2018-01-25T22:20:33.784Z,32.37
2018-01-25T22:23:02.111Z,32.00
2018-01-25T22:25:30.474Z,27.80
2018-01-25T22:27:58.820Z,25.63
2018-01-25T22:30:27.891Z,25.07
2018-01-25T22:32:56.298Z,27.50
2018-01-25T22:35:24.694Z,30.40
2018-01-25T22:37:53.049Z,31.90
2018-01-25T22:40:21.615Z,28.43
2018-01-25T22:42:50.277Z,38.80
2018-01-25T22:45:18.598Z,36.17
2018-01-25T22:47:46.899Z,28.53
2018-01-25T22:50:15.282Z,22.07
2018-01-25T22:52:43.916Z,23.60
2018-01-25T22:55:12.223Z,20.60
2018-01-25T22:57:40.557Z,19.80
2018-01-25T23:00:08.864Z,20.90
2018-01-25T23:02:37.254Z,23.13
2018-01-25T23:05:05.612Z,21.67
2018-01-25T23:07:33.958Z,22.50
2018-01-25T23:10:02.267Z,19.00
2018-01-25T23:12:30.945Z,20.47
2018-01-25T23:14:59.301Z,22.00
2018-01-25T23:17:28.423Z,26.13
2018-01-25T23:19:56.814Z,20.40
2018-01-25T23:22:25.115Z,17.97
2018-01-25T23:24:53.808Z,22.50
2018-01-25T23:27:22.183Z,23.40
2018-01-25T23:29:50.487Z,19.33
2018-01-25T23:32:18.838Z,23.03
2018-01-25T23:34:47.442Z,19.43
2018-01-25T23:37:15.774Z,22.10
2018-01-25T23:39:44.082Z,30.73
2018-01-25T23:42:12.451Z,22.03
2018-01-25T23:44:40.755Z,18.57
2018-01-25T23:47:09.065Z,24.27
2018-01-25T23:49:37.391Z,24.07
2018-01-25T23:52:05.700Z,17.13
2018-01-25T23:54:34.856Z,23.50
2018-01-25T23:57:03.159Z,17.40
2018-01-25T23:59:31.475Z,16.77
